sensor_id;sensor_type;location;lat;lon;timestamp;temperature;humidity
70947;DHT22;58605;48.700;8.760;2023-02-25T00:02:13;4.50;99.90
70947;DHT22;58605;48.700;8.760;2023-02-25T00:04:40;4.60;99.90
70947;DHT22;58605;48.700;8.760;2023-02-25T00:07:06;4.60;99.90
70947;DHT22;58605;48.700;8.760;2023-02-25T00:09:33;4.60;99.90
70947;DHT22;58605;48.700;8.760;2023-02-25T00:11:59;4.60;99.90
70947;DHT22;58605;48.700;8.760;2023-02-25T00:14:25;4.60;99.90
70947;DHT22;58605;48.700;8.760;2023-02-25T00:16:52;4.80;99.90
70947;DHT22;58605;48.700;8.760;2023-02-25T00:19:22;4.90;99.90
70947;DHT22;58605;48.700;8.760;2023-02-25T00:21:49;4.80;99.90
70947;DHT22;58605;48.700;8.760;2023-02-25T00:24:15;4.60;99.90
70947;DHT22;58605;48.700;8.760;2023-02-25T00:26:42;4.60;99.90
70947;DHT22;58605;48.700;8.760;2023-02-25T00:29:08;4.80;99.90
70947;DHT22;58605;48.700;8.760;2023-02-25T00:31:34;4.80;99.90
70947;DHT22;58605;48.700;8.760;2023-02-25T00:34:00;4.90;99.90
70947;DHT22;58605;48.700;8.760;2023-02-25T00:36:28;4.80;99.90
70947;DHT22;58605;48.700;8.760;2023-02-25T00:38:56;4.60;99.90
70947;DHT22;58605;48.700;8.760;2023-02-25T00:41:23;4.60;99.90
70947;DHT22;58605;48.700;8.760;2023-02-25T00:43:51;4.60;99.90
70947;DHT22;58605;48.700;8.760;2023-02-25T00:46:18;4.50;99.90
70947;DHT22;58605;48.700;8.760;2023-02-25T00:48:44;4.50;99.90
70947;DHT22;58605;48.700;8.760;2023-02-25T00:51:11;4.60;99.90
70947;DHT22;58605;48.700;8.760;2023-02-25T00:53:37;4.80;99.90
70947;DHT22;58605;48.700;8.760;2023-02-25T00:56:07;5.00;99.90
70947;DHT22;58605;48.700;8.760;2023-02-25T00:58:34;5.20;99.90
70947;DHT22;58605;48.700;8.760;2023-02-25T01:01:00;5.20;99.90
70947;DHT22;58605;48.700;8.760;2023-02-25T01:03:26;5.30;99.90
70947;DHT22;58605;48.700;8.760;2023-02-25T01:05:52;5.10;99.90
70947;DHT22;58605;48.700;8.760;2023-02-25T01:08:19;5.10;99.90
70947;DHT22;58605;48.700;8.760;2023-02-25T01:10:46;5.00;99.90
70947;DHT22;58605;48.700;8.760;2023-02-25T01:13:14;5.00;99.90
70947;DHT22;58605;48.700;8.760;2023-02-25T01:15:41;4.80;99.90
70947;DHT22;58605;48.700;8.760;2023-02-25T01:18:07;4.90;99.90
70947;DHT22;58605;48.700;8.760;2023-02-25T01:20:37;4.80;99.90
70947;DHT22;58605;48.700;8.760;2023-02-25T01:23:11;5.00;99.90
70947;DHT22;58605;48.700;8.760;2023-02-25T01:25:38;5.20;99.90
70947;DHT22;58605;48.700;8.760;2023-02-25T01:28:04;5.20;99.90
70947;DHT22;58605;48.700;8.760;2023-02-25T01:30:34;5.20;99.90
70947;DHT22;58605;48.700;8.760;2023-02-25T01:33:00;5.20;99.90
70947;DHT22;58605;48.700;8.760;2023-02-25T01:35:26;5.40;99.90
70947;DHT22;58605;48.700;8.760;2023-02-25T01:37:52;5.30;99.90
70947;DHT22;58605;48.700;8.760;2023-02-25T01:40:20;5.00;99.90
70947;DHT22;58605;48.700;8.760;2023-02-25T01:42:46;4.80;99.90
70947;DHT22;58605;48.700;8.760;2023-02-25T01:45:31;4.50;99.90
70947;DHT22;58605;48.700;8.760;2023-02-25T01:48:02;4.30;99.90
70947;DHT22;58605;48.700;8.760;2023-02-25T01:50:36;4.50;99.90
70947;DHT22;58605;48.700;8.760;2023-02-25T01:53:03;4.70;99.90
70947;DHT22;58605;48.700;8.760;2023-02-25T01:55:30;4.90;99.90
70947;DHT22;58605;48.700;8.760;2023-02-25T01:57:57;5.00;99.90
70947;DHT22;58605;48.700;8.760;2023-02-25T02:00:24;5.10;99.90
70947;DHT22;58605;48.700;8.760;2023-02-25T02:02:54;5.10;99.90
70947;DHT22;58605;48.700;8.760;2023-02-25T02:05:26;5.10;99.90
70947;DHT22;58605;48.700;8.760;2023-02-25T02:07:54;5.10;99.90
70947;DHT22;58605;48.700;8.760;2023-02-25T02:10:20;5.10;99.90
70947;DHT22;58605;48.700;8.760;2023-02-25T02:12:46;5.20;99.90
70947;DHT22;58605;48.700;8.760;2023-02-25T02:15:19;5.20;99.90
70947;DHT22;58605;48.700;8.760;2023-02-25T02:17:50;5.20;99.90
70947;DHT22;58605;48.700;8.760;2023-02-25T02:20:23;5.00;99.90
70947;DHT22;58605;48.700;8.760;2023-02-25T02:23:12;5.10;99.90
70947;DHT22;58605;48.700;8.760;2023-02-25T02:29:16;4.90;99.90
70947;DHT22;58605;48.700;8.760;2023-02-25T02:31:53;4.80;99.90
70947;DHT22;58605;48.700;8.760;2023-02-25T02:34:30;4.80;99.90
70947;DHT22;58605;48.700;8.760;2023-02-25T02:37:06;4.60;99.90
70947;DHT22;58605;48.700;8.760;2023-02-25T02:39:41;4.70;99.90
70947;DHT22;58605;48.700;8.760;2023-02-25T02:42:16;4.60;99.90
70947;DHT22;58605;48.700;8.760;2023-02-25T02:44:51;4.60;99.90
70947;DHT22;58605;48.700;8.760;2023-02-25T02:47:25;4.50;99.90
70947;DHT22;58605;48.700;8.760;2023-02-25T02:49:55;4.40;99.90
70947;DHT22;58605;48.700;8.760;2023-02-25T02:52:26;4.30;99.90
70947;DHT22;58605;48.700;8.760;2023-02-25T02:54:58;4.50;99.90
70947;DHT22;58605;48.700;8.760;2023-02-25T02:57:27;4.60;99.90
70947;DHT22;58605;48.700;8.760;2023-02-25T02:59:58;4.70;99.90
70947;DHT22;58605;48.700;8.760;2023-02-25T03:02:29;4.70;99.90
70947;DHT22;58605;48.700;8.760;2023-02-25T03:04:59;4.80;99.90
70947;DHT22;58605;48.700;8.760;2023-02-25T03:07:26;4.80;99.90
70947;DHT22;58605;48.700;8.760;2023-02-25T03:09:57;4.80;99.90
70947;DHT22;58605;48.700;8.760;2023-02-25T03:12:23;4.90;99.90
70947;DHT22;58605;48.700;8.760;2023-02-25T03:14:49;5.10;99.90
70947;DHT22;58605;48.700;8.760;2023-02-25T03:17:26;5.10;99.90
70947;DHT22;58605;48.700;8.760;2023-02-25T03:19:57;5.00;99.90
70947;DHT22;58605;48.700;8.760;2023-02-25T03:22:27;5.00;99.90
70947;DHT22;58605;48.700;8.760;2023-02-25T03:24:59;4.90;99.90
70947;DHT22;58605;48.700;8.760;2023-02-25T03:27:31;4.80;99.90
70947;DHT22;58605;48.700;8.760;2023-02-25T03:30:04;4.90;99.90
70947;DHT22;58605;48.700;8.760;2023-02-25T03:32:33;4.90;99.90
70947;DHT22;58605;48.700;8.760;2023-02-25T03:35:04;5.00;99.90
70947;DHT22;58605;48.700;8.760;2023-02-25T03:37:31;5.00;99.90
70947;DHT22;58605;48.700;8.760;2023-02-25T03:40:02;5.10;99.90
70947;DHT22;58605;48.700;8.760;2023-02-25T03:42:40;5.00;99.90
70947;DHT22;58605;48.700;8.760;2023-02-25T03:45:10;5.00;99.90
70947;DHT22;58605;48.700;8.760;2023-02-25T03:47:38;4.90;97.60
70947;DHT22;58605;48.700;8.760;2023-02-25T03:50:08;4.90;98.30
70947;DHT22;58605;48.700;8.760;2023-02-25T03:52:38;5.00;98.40
70947;DHT22;58605;48.700;8.760;2023-02-25T03:55:05;4.90;98.70
70947;DHT22;58605;48.700;8.760;2023-02-25T03:57:36;4.90;99.80
70947;DHT22;58605;48.700;8.760;2023-02-25T04:00:04;5.00;99.10
70947;DHT22;58605;48.700;8.760;2023-02-25T04:02:42;5.10;97.20
70947;DHT22;58605;48.700;8.760;2023-02-25T04:05:09;4.90;94.40
70947;DHT22;58605;48.700;8.760;2023-02-25T04:07:35;4.80;95.30
70947;DHT22;58605;48.700;8.760;2023-02-25T04:10:01;4.80;94.20
70947;DHT22;58605;48.700;8.760;2023-02-25T04:12:27;4.60;93.80
70947;DHT22;58605;48.700;8.760;2023-02-25T04:14:53;4.60;93.70
70947;DHT22;58605;48.700;8.760;2023-02-25T04:17:19;4.50;93.20
70947;DHT22;58605;48.700;8.760;2023-02-25T04:19:46;4.50;93.50
70947;DHT22;58605;48.700;8.760;2023-02-25T04:22:12;4.40;94.10
70947;DHT22;58605;48.700;8.760;2023-02-25T04:24:38;4.30;94.70
70947;DHT22;58605;48.700;8.760;2023-02-25T04:27:04;4.30;95.10
70947;DHT22;58605;48.700;8.760;2023-02-25T04:29:30;4.40;94.50
70947;DHT22;58605;48.700;8.760;2023-02-25T04:31:56;4.40;93.60
70947;DHT22;58605;48.700;8.760;2023-02-25T04:34:23;4.20;93.80
70947;DHT22;58605;48.700;8.760;2023-02-25T04:36:50;4.10;94.90
70947;DHT22;58605;48.700;8.760;2023-02-25T04:39:17;3.90;94.60
70947;DHT22;58605;48.700;8.760;2023-02-25T04:41:44;3.80;93.90
70947;DHT22;58605;48.700;8.760;2023-02-25T04:44:10;3.70;94.20
70947;DHT22;58605;48.700;8.760;2023-02-25T04:46:38;3.90;94.30
70947;DHT22;58605;48.700;8.760;2023-02-25T04:49:05;4.10;95.30
70947;DHT22;58605;48.700;8.760;2023-02-25T04:51:32;4.20;96.40
70947;DHT22;58605;48.700;8.760;2023-02-25T04:53:59;4.00;93.50
70947;DHT22;58605;48.700;8.760;2023-02-25T04:56:25;3.80;91.60
70947;DHT22;58605;48.700;8.760;2023-02-25T04:58:51;3.80;93.10
70947;DHT22;58605;48.700;8.760;2023-02-25T05:01:18;3.70;93.10
70947;DHT22;58605;48.700;8.760;2023-02-25T05:03:44;3.60;91.90
70947;DHT22;58605;48.700;8.760;2023-02-25T05:06:10;3.60;92.10
70947;DHT22;58605;48.700;8.760;2023-02-25T05:08:37;3.70;91.30
70947;DHT22;58605;48.700;8.760;2023-02-25T05:11:05;3.90;92.40
70947;DHT22;58605;48.700;8.760;2023-02-25T05:13:31;4.00;94.10
70947;DHT22;58605;48.700;8.760;2023-02-25T05:16:05;4.00;93.80
70947;DHT22;58605;48.700;8.760;2023-02-25T05:18:31;4.00;94.00
70947;DHT22;58605;48.700;8.760;2023-02-25T05:20:59;3.90;93.80
70947;DHT22;58605;48.700;8.760;2023-02-25T05:23:25;3.90;94.80
70947;DHT22;58605;48.700;8.760;2023-02-25T05:25:51;3.80;94.80
70947;DHT22;58605;48.700;8.760;2023-02-25T05:28:18;3.70;95.00
70947;DHT22;58605;48.700;8.760;2023-02-25T05:30:45;3.70;95.30
70947;DHT22;58605;48.700;8.760;2023-02-25T05:33:10;3.70;94.60
70947;DHT22;58605;48.700;8.760;2023-02-25T05:35:38;3.80;94.90
70947;DHT22;58605;48.700;8.760;2023-02-25T05:38:05;3.80;94.10
70947;DHT22;58605;48.700;8.760;2023-02-25T05:40:31;3.80;92.90
70947;DHT22;58605;48.700;8.760;2023-02-25T05:42:57;3.80;92.00
70947;DHT22;58605;48.700;8.760;2023-02-25T05:45:25;3.80;92.30
70947;DHT22;58605;48.700;8.760;2023-02-25T05:47:50;3.80;93.40
70947;DHT22;58605;48.700;8.760;2023-02-25T05:50:17;3.60;94.90
70947;DHT22;58605;48.700;8.760;2023-02-25T05:52:43;3.70;97.20
70947;DHT22;58605;48.700;8.760;2023-02-25T05:55:10;3.70;99.40
70947;DHT22;58605;48.700;8.760;2023-02-25T05:57:36;3.70;99.90
70947;DHT22;58605;48.700;8.760;2023-02-25T06:00:02;3.70;99.90
70947;DHT22;58605;48.700;8.760;2023-02-25T06:02:33;3.50;99.90
70947;DHT22;58605;48.700;8.760;2023-02-25T06:04:59;3.50;99.90
70947;DHT22;58605;48.700;8.760;2023-02-25T06:07:27;3.60;99.90
70947;DHT22;58605;48.700;8.760;2023-02-25T06:09:53;3.50;99.90
70947;DHT22;58605;48.700;8.760;2023-02-25T06:12:19;3.40;99.90
70947;DHT22;58605;48.700;8.760;2023-02-25T06:14:45;3.20;99.90
70947;DHT22;58605;48.700;8.760;2023-02-25T06:17:11;3.00;99.90
70947;DHT22;58605;48.700;8.760;2023-02-25T06:19:38;2.90;99.90
70947;DHT22;58605;48.700;8.760;2023-02-25T06:22:04;2.90;99.90
70947;DHT22;58605;48.700;8.760;2023-02-25T06:24:30;2.90;99.90
70947;DHT22;58605;48.700;8.760;2023-02-25T06:26:57;3.10;99.90
70947;DHT22;58605;48.700;8.760;2023-02-25T06:29:23;3.10;99.90
70947;DHT22;58605;48.700;8.760;2023-02-25T06:31:49;3.00;99.90
70947;DHT22;58605;48.700;8.760;2023-02-25T06:34:15;3.00;99.90
70947;DHT22;58605;48.700;8.760;2023-02-25T06:36:42;3.00;99.90
70947;DHT22;58605;48.700;8.760;2023-02-25T06:39:08;3.10;99.90
70947;DHT22;58605;48.700;8.760;2023-02-25T06:41:36;3.30;99.90
70947;DHT22;58605;48.700;8.760;2023-02-25T06:44:02;3.50;99.90
70947;DHT22;58605;48.700;8.760;2023-02-25T06:46:29;3.60;99.90
70947;DHT22;58605;48.700;8.760;2023-02-25T06:48:55;3.60;99.90
70947;DHT22;58605;48.700;8.760;2023-02-25T06:51:22;3.60;99.90
70947;DHT22;58605;48.700;8.760;2023-02-25T06:53:49;3.70;99.90
70947;DHT22;58605;48.700;8.760;2023-02-25T06:56:17;3.80;99.60
70947;DHT22;58605;48.700;8.760;2023-02-25T06:58:44;3.80;97.60
70947;DHT22;58605;48.700;8.760;2023-02-25T07:01:13;3.90;95.50
70947;DHT22;58605;48.700;8.760;2023-02-25T07:03:39;4.00;93.70
70947;DHT22;58605;48.700;8.760;2023-02-25T07:06:06;4.00;91.40
70947;DHT22;58605;48.700;8.760;2023-02-25T07:08:33;4.10;90.10
70947;DHT22;58605;48.700;8.760;2023-02-25T07:11:11;4.10;88.20
70947;DHT22;58605;48.700;8.760;2023-02-25T07:13:37;4.10;86.50
70947;DHT22;58605;48.700;8.760;2023-02-25T07:16:11;4.20;85.30
70947;DHT22;58605;48.700;8.760;2023-02-25T07:18:37;4.10;85.60
70947;DHT22;58605;48.700;8.760;2023-02-25T07:21:04;4.30;85.10
70947;DHT22;58605;48.700;8.760;2023-02-25T07:23:31;4.30;83.70
70947;DHT22;58605;48.700;8.760;2023-02-25T07:25:57;4.30;83.40
70947;DHT22;58605;48.700;8.760;2023-02-25T07:28:27;4.50;83.10
70947;DHT22;58605;48.700;8.760;2023-02-25T07:30:53;4.50;82.20
70947;DHT22;58605;48.700;8.760;2023-02-25T07:33:19;4.10;81.40
70947;DHT22;58605;48.700;8.760;2023-02-25T07:35:45;3.90;79.50
70947;DHT22;58605;48.700;8.760;2023-02-25T07:38:11;3.80;80.90
70947;DHT22;58605;48.700;8.760;2023-02-25T07:40:37;3.90;79.80
70947;DHT22;58605;48.700;8.760;2023-02-25T07:43:04;4.10;81.10
70947;DHT22;58605;48.700;8.760;2023-02-25T07:45:32;4.20;80.80
70947;DHT22;58605;48.700;8.760;2023-02-25T07:48:04;4.40;81.90
70947;DHT22;58605;48.700;8.760;2023-02-25T07:50:31;4.40;80.20
70947;DHT22;58605;48.700;8.760;2023-02-25T07:52:57;4.50;80.80
70947;DHT22;58605;48.700;8.760;2023-02-25T07:55:23;4.50;82.10
70947;DHT22;58605;48.700;8.760;2023-02-25T07:57:49;4.50;81.30
70947;DHT22;58605;48.700;8.760;2023-02-25T08:00:15;4.60;81.70
70947;DHT22;58605;48.700;8.760;2023-02-25T08:02:44;4.60;81.70
70947;DHT22;58605;48.700;8.760;2023-02-25T08:05:10;4.40;81.30
70947;DHT22;58605;48.700;8.760;2023-02-25T08:07:36;4.50;82.70
70947;DHT22;58605;48.700;8.760;2023-02-25T08:10:03;4.70;82.80
70947;DHT22;58605;48.700;8.760;2023-02-25T08:12:30;4.90;83.20
70947;DHT22;58605;48.700;8.760;2023-02-25T08:14:56;4.90;82.70
70947;DHT22;58605;48.700;8.760;2023-02-25T08:17:25;4.90;81.90
70947;DHT22;58605;48.700;8.760;2023-02-25T08:19:57;4.90;82.80
70947;DHT22;58605;48.700;8.760;2023-02-25T08:22:23;4.80;82.20
70947;DHT22;58605;48.700;8.760;2023-02-25T08:24:49;4.70;82.00
70947;DHT22;58605;48.700;8.760;2023-02-25T08:27:15;4.80;83.40
70947;DHT22;58605;48.700;8.760;2023-02-25T08:29:41;4.80;83.50
70947;DHT22;58605;48.700;8.760;2023-02-25T08:32:07;4.60;83.10
70947;DHT22;58605;48.700;8.760;2023-02-25T08:34:33;4.70;83.30
70947;DHT22;58605;48.700;8.760;2023-02-25T08:37:01;4.70;84.50
70947;DHT22;58605;48.700;8.760;2023-02-25T08:39:27;4.60;84.10
70947;DHT22;58605;48.700;8.760;2023-02-25T08:41:53;4.70;84.60
70947;DHT22;58605;48.700;8.760;2023-02-25T08:44:19;4.70;84.50
70947;DHT22;58605;48.700;8.760;2023-02-25T08:46:45;4.70;84.40
70947;DHT22;58605;48.700;8.760;2023-02-25T08:49:12;4.70;86.10
70947;DHT22;58605;48.700;8.760;2023-02-25T08:51:38;4.80;84.90
70947;DHT22;58605;48.700;8.760;2023-02-25T08:54:10;4.80;84.20
70947;DHT22;58605;48.700;8.760;2023-02-25T08:56:37;4.80;83.20
70947;DHT22;58605;48.700;8.760;2023-02-25T08:59:10;4.90;82.50
70947;DHT22;58605;48.700;8.760;2023-02-25T09:01:36;4.90;79.00
70947;DHT22;58605;48.700;8.760;2023-02-25T09:04:09;4.60;78.50
70947;DHT22;58605;48.700;8.760;2023-02-25T09:06:35;4.60;80.10
70947;DHT22;58605;48.700;8.760;2023-02-25T09:09:01;4.70;80.10
70947;DHT22;58605;48.700;8.760;2023-02-25T09:11:28;4.50;79.50
70947;DHT22;58605;48.700;8.760;2023-02-25T09:13:54;4.70;80.00
70947;DHT22;58605;48.700;8.760;2023-02-25T09:16:20;4.60;79.00
70947;DHT22;58605;48.700;8.760;2023-02-25T09:18:48;4.70;77.90
70947;DHT22;58605;48.700;8.760;2023-02-25T09:21:15;5.00;79.30
70947;DHT22;58605;48.700;8.760;2023-02-25T09:23:41;4.90;78.60
70947;DHT22;58605;48.700;8.760;2023-02-25T09:26:07;4.50;78.10
70947;DHT22;58605;48.700;8.760;2023-02-25T09:28:35;4.80;78.10
70947;DHT22;58605;48.700;8.760;2023-02-25T09:31:01;4.90;75.50
70947;DHT22;58605;48.700;8.760;2023-02-25T09:33:27;4.90;74.00
70947;DHT22;58605;48.700;8.760;2023-02-25T09:35:54;4.90;74.70
70947;DHT22;58605;48.700;8.760;2023-02-25T09:38:20;5.00;75.90
70947;DHT22;58605;48.700;8.760;2023-02-25T09:40:48;4.80;74.10
70947;DHT22;58605;48.700;8.760;2023-02-25T09:43:20;4.80;73.80
70947;DHT22;58605;48.700;8.760;2023-02-25T09:45:49;5.00;75.00
70947;DHT22;58605;48.700;8.760;2023-02-25T09:48:19;5.00;73.80
70947;DHT22;58605;48.700;8.760;2023-02-25T09:50:53;5.10;74.70
70947;DHT22;58605;48.700;8.760;2023-02-25T09:53:24;5.10;73.50
70947;DHT22;58605;48.700;8.760;2023-02-25T09:55:52;5.30;72.80
70947;DHT22;58605;48.700;8.760;2023-02-25T09:58:24;5.30;70.90
70947;DHT22;58605;48.700;8.760;2023-02-25T10:01:00;5.20;72.80
70947;DHT22;58605;48.700;8.760;2023-02-25T10:03:39;4.60;72.40
70947;DHT22;58605;48.700;8.760;2023-02-25T10:06:15;4.30;74.80
70947;DHT22;58605;48.700;8.760;2023-02-25T10:08:46;4.30;74.00
70947;DHT22;58605;48.700;8.760;2023-02-25T10:11:30;4.50;72.90
70947;DHT22;58605;48.700;8.760;2023-02-25T10:14:06;4.80;73.80
70947;DHT22;58605;48.700;8.760;2023-02-25T10:16:44;5.10;73.70
70947;DHT22;58605;48.700;8.760;2023-02-25T10:19:19;5.00;73.10
70947;DHT22;58605;48.700;8.760;2023-02-25T10:21:58;4.80;73.10
70947;DHT22;58605;48.700;8.760;2023-02-25T10:24:31;4.60;73.10
70947;DHT22;58605;48.700;8.760;2023-02-25T10:27:07;4.70;74.20
70947;DHT22;58605;48.700;8.760;2023-02-25T10:29:41;4.90;73.80
70947;DHT22;58605;48.700;8.760;2023-02-25T10:32:20;4.70;71.00
70947;DHT22;58605;48.700;8.760;2023-02-25T10:34:49;4.80;73.40
70947;DHT22;58605;48.700;8.760;2023-02-25T10:37:19;5.00;72.80
70947;DHT22;58605;48.700;8.760;2023-02-25T10:39:45;5.00;73.10
70947;DHT22;58605;48.700;8.760;2023-02-25T10:42:14;5.10;73.50
70947;DHT22;58605;48.700;8.760;2023-02-25T10:44:41;5.30;72.60
70947;DHT22;58605;48.700;8.760;2023-02-25T10:47:12;5.40;73.00
70947;DHT22;58605;48.700;8.760;2023-02-25T10:50:17;5.40;73.50
70947;DHT22;58605;48.700;8.760;2023-02-25T10:52:58;5.40;73.80
70947;DHT22;58605;48.700;8.760;2023-02-25T10:55:36;5.40;72.80
70947;DHT22;58605;48.700;8.760;2023-02-25T10:58:03;5.40;74.00
70947;DHT22;58605;48.700;8.760;2023-02-25T11:00:31;5.60;72.50
70947;DHT22;58605;48.700;8.760;2023-02-25T11:02:59;5.70;71.10
70947;DHT22;58605;48.700;8.760;2023-02-25T11:05:33;5.70;70.50
70947;DHT22;58605;48.700;8.760;2023-02-25T11:08:01;5.70;69.20
70947;DHT22;58605;48.700;8.760;2023-02-25T11:10:29;5.80;69.70
70947;DHT22;58605;48.700;8.760;2023-02-25T11:12:56;5.90;68.90
70947;DHT22;58605;48.700;8.760;2023-02-25T11:15:31;5.80;67.30
70947;DHT22;58605;48.700;8.760;2023-02-25T11:18:05;5.70;65.80
70947;DHT22;58605;48.700;8.760;2023-02-25T11:20:33;5.70;67.20
70947;DHT22;58605;48.700;8.760;2023-02-25T11:23:00;5.80;68.50
70947;DHT22;58605;48.700;8.760;2023-02-25T11:25:35;5.90;67.50
70947;DHT22;58605;48.700;8.760;2023-02-25T11:28:02;5.80;66.70
70947;DHT22;58605;48.700;8.760;2023-02-25T11:30:31;5.70;67.50
70947;DHT22;58605;48.700;8.760;2023-02-25T11:33:01;5.70;69.70
70947;DHT22;58605;48.700;8.760;2023-02-25T11:35:30;5.70;70.10
70947;DHT22;58605;48.700;8.760;2023-02-25T11:38:13;5.80;70.40
70947;DHT22;58605;48.700;8.760;2023-02-25T11:40:41;5.80;70.60
70947;DHT22;58605;48.700;8.760;2023-02-25T11:43:17;5.70;71.20
70947;DHT22;58605;48.700;8.760;2023-02-25T11:45:50;5.70;70.80
70947;DHT22;58605;48.700;8.760;2023-02-25T11:48:19;5.80;70.90
70947;DHT22;58605;48.700;8.760;2023-02-25T11:50:49;5.80;70.90
70947;DHT22;58605;48.700;8.760;2023-02-25T11:53:30;5.70;71.80
70947;DHT22;58605;48.700;8.760;2023-02-25T11:56:08;5.70;72.00
70947;DHT22;58605;48.700;8.760;2023-02-25T11:58:49;5.80;70.00
70947;DHT22;58605;48.700;8.760;2023-02-25T12:01:24;5.70;71.50
70947;DHT22;58605;48.700;8.760;2023-02-25T12:04:33;5.60;71.20
70947;DHT22;58605;48.700;8.760;2023-02-25T12:07:17;5.70;70.60
70947;DHT22;58605;48.700;8.760;2023-02-25T12:10:09;5.70;70.50
70947;DHT22;58605;48.700;8.760;2023-02-25T12:16:05;5.70;69.00
70947;DHT22;58605;48.700;8.760;2023-02-25T12:18:59;5.70;69.50
70947;DHT22;58605;48.700;8.760;2023-02-25T12:22:14;5.50;70.90
70947;DHT22;58605;48.700;8.760;2023-02-25T12:25:07;5.50;70.40
70947;DHT22;58605;48.700;8.760;2023-02-25T12:28:03;5.60;70.70
70947;DHT22;58605;48.700;8.760;2023-02-25T12:31:11;5.50;70.80
70947;DHT22;58605;48.700;8.760;2023-02-25T12:36:59;5.80;70.90
70947;DHT22;58605;48.700;8.760;2023-02-25T12:39:45;5.70;70.70
70947;DHT22;58605;48.700;8.760;2023-02-25T12:42:25;5.80;70.30
70947;DHT22;58605;48.700;8.760;2023-02-25T12:45:08;5.90;70.40
70947;DHT22;58605;48.700;8.760;2023-02-25T12:50:51;6.00;68.80
70947;DHT22;58605;48.700;8.760;2023-02-25T12:53:33;5.80;69.10
70947;DHT22;58605;48.700;8.760;2023-02-25T12:56:32;5.80;69.10
70947;DHT22;58605;48.700;8.760;2023-02-25T12:59:20;5.80;69.50
70947;DHT22;58605;48.700;8.760;2023-02-25T13:01:59;5.80;70.10
70947;DHT22;58605;48.700;8.760;2023-02-25T13:04:52;5.80;70.70
70947;DHT22;58605;48.700;8.760;2023-02-25T13:07:38;5.90;70.00
70947;DHT22;58605;48.700;8.760;2023-02-25T13:10:26;5.80;70.00
70947;DHT22;58605;48.700;8.760;2023-02-25T13:13:18;5.80;70.30
70947;DHT22;58605;48.700;8.760;2023-02-25T13:15:59;5.60;70.20
70947;DHT22;58605;48.700;8.760;2023-02-25T13:18:39;5.50;70.70
70947;DHT22;58605;48.700;8.760;2023-02-25T13:24:20;5.60;70.60
70947;DHT22;58605;48.700;8.760;2023-02-25T13:27:04;5.50;71.40
70947;DHT22;58605;48.700;8.760;2023-02-25T13:29:58;5.60;71.20
70947;DHT22;58605;48.700;8.760;2023-02-25T13:32:33;5.10;71.10
70947;DHT22;58605;48.700;8.760;2023-02-25T13:38:03;4.20;74.40
70947;DHT22;58605;48.700;8.760;2023-02-25T13:40:42;3.90;76.00
70947;DHT22;58605;48.700;8.760;2023-02-25T13:43:27;3.90;76.70
70947;DHT22;58605;48.700;8.760;2023-02-25T13:46:12;4.20;77.80
70947;DHT22;58605;48.700;8.760;2023-02-25T13:48:54;4.60;77.00
70947;DHT22;58605;48.700;8.760;2023-02-25T13:51:46;4.70;77.20
70947;DHT22;58605;48.700;8.760;2023-02-25T13:54:38;4.90;76.20
70947;DHT22;58605;48.700;8.760;2023-02-25T13:57:23;5.10;74.80
70947;DHT22;58605;48.700;8.760;2023-02-25T14:00:15;5.30;75.20
70947;DHT22;58605;48.700;8.760;2023-02-25T14:03:02;5.30;74.80
70947;DHT22;58605;48.700;8.760;2023-02-25T14:05:49;5.40;73.00
70947;DHT22;58605;48.700;8.760;2023-02-25T14:08:38;5.60;72.80
70947;DHT22;58605;48.700;8.760;2023-02-25T14:11:22;5.60;70.60
70947;DHT22;58605;48.700;8.760;2023-02-25T14:14:02;5.50;71.80
70947;DHT22;58605;48.700;8.760;2023-02-25T14:16:46;5.50;73.40
70947;DHT22;58605;48.700;8.760;2023-02-25T14:19:36;5.60;73.20
70947;DHT22;58605;48.700;8.760;2023-02-25T14:22:23;5.80;73.10
70947;DHT22;58605;48.700;8.760;2023-02-25T14:25:13;6.00;72.60
70947;DHT22;58605;48.700;8.760;2023-02-25T14:27:48;6.00;68.80
70947;DHT22;58605;48.700;8.760;2023-02-25T14:30:26;5.80;69.60
70947;DHT22;58605;48.700;8.760;2023-02-25T14:33:14;6.00;70.00
70947;DHT22;58605;48.700;8.760;2023-02-25T14:36:01;6.00;69.40
70947;DHT22;58605;48.700;8.760;2023-02-25T14:38:37;5.90;69.30
70947;DHT22;58605;48.700;8.760;2023-02-25T14:41:17;6.10;68.80
70947;DHT22;58605;48.700;8.760;2023-02-25T14:43:49;6.20;69.10
70947;DHT22;58605;48.700;8.760;2023-02-25T14:46:27;6.00;68.20
70947;DHT22;58605;48.700;8.760;2023-02-25T14:48:59;6.10;68.50
70947;DHT22;58605;48.700;8.760;2023-02-25T14:51:49;5.80;67.10
70947;DHT22;58605;48.700;8.760;2023-02-25T14:54:35;5.80;67.40
70947;DHT22;58605;48.700;8.760;2023-02-25T14:57:25;5.20;65.70
70947;DHT22;58605;48.700;8.760;2023-02-25T15:00:33;5.00;66.10
70947;DHT22;58605;48.700;8.760;2023-02-25T15:06:29;5.10;69.10
70947;DHT22;58605;48.700;8.760;2023-02-25T15:09:40;5.30;69.00
70947;DHT22;58605;48.700;8.760;2023-02-25T15:12:26;5.60;68.60
70947;DHT22;58605;48.700;8.760;2023-02-25T15:15:33;5.80;67.40
70947;DHT22;58605;48.700;8.760;2023-02-25T15:21:33;6.00;66.40
70947;DHT22;58605;48.700;8.760;2023-02-25T15:24:01;5.90;67.40
70947;DHT22;58605;48.700;8.760;2023-02-25T15:26:42;5.90;66.20
70947;DHT22;58605;48.700;8.760;2023-02-25T15:29:20;5.80;67.00
70947;DHT22;58605;48.700;8.760;2023-02-25T15:32:21;5.90;67.00
70947;DHT22;58605;48.700;8.760;2023-02-25T15:34:56;5.90;65.90
70947;DHT22;58605;48.700;8.760;2023-02-25T15:37:31;6.00;66.40
70947;DHT22;58605;48.700;8.760;2023-02-25T15:40:00;5.90;66.20
70947;DHT22;58605;48.700;8.760;2023-02-25T15:42:44;5.70;65.80
70947;DHT22;58605;48.700;8.760;2023-02-25T15:45:37;5.70;67.40
70947;DHT22;58605;48.700;8.760;2023-02-25T15:48:35;5.90;67.30
70947;DHT22;58605;48.700;8.760;2023-02-25T15:51:07;6.10;67.40
70947;DHT22;58605;48.700;8.760;2023-02-25T15:53:43;6.10;66.10
70947;DHT22;58605;48.700;8.760;2023-02-25T15:56:44;5.90;67.10
70947;DHT22;58605;48.700;8.760;2023-02-25T15:59:40;6.00;66.30
70947;DHT22;58605;48.700;8.760;2023-02-25T16:02:38;6.10;65.30
70947;DHT22;58605;48.700;8.760;2023-02-25T16:05:16;6.20;66.40
70947;DHT22;58605;48.700;8.760;2023-02-25T16:07:44;6.20;65.30
70947;DHT22;58605;48.700;8.760;2023-02-25T16:10:20;6.00;65.50
70947;DHT22;58605;48.700;8.760;2023-02-25T16:12:49;6.00;66.00
70947;DHT22;58605;48.700;8.760;2023-02-25T16:15:21;6.20;65.40
70947;DHT22;58605;48.700;8.760;2023-02-25T16:17:51;6.20;65.60
70947;DHT22;58605;48.700;8.760;2023-02-25T16:20:21;6.40;65.70
70947;DHT22;58605;48.700;8.760;2023-02-25T16:22:52;6.30;65.50
70947;DHT22;58605;48.700;8.760;2023-02-25T16:25:28;6.20;65.80
70947;DHT22;58605;48.700;8.760;2023-02-25T16:28:02;6.20;66.80
70947;DHT22;58605;48.700;8.760;2023-02-25T16:30:34;6.10;65.60
70947;DHT22;58605;48.700;8.760;2023-02-25T16:33:11;6.00;65.90
70947;DHT22;58605;48.700;8.760;2023-02-25T16:35:45;5.90;66.80
70947;DHT22;58605;48.700;8.760;2023-02-25T16:38:19;5.80;66.60
70947;DHT22;58605;48.700;8.760;2023-02-25T16:40:46;5.70;67.20
70947;DHT22;58605;48.700;8.760;2023-02-25T16:43:16;5.50;68.60
70947;DHT22;58605;48.700;8.760;2023-02-25T16:45:53;5.20;68.20